createdAt,value
2023-01-09T00:01:29.951Z,94866.75
2023-01-09T00:03:56.890Z,94877.19
2023-01-09T00:06:23.994Z,94883.81
2023-01-09T00:08:50.858Z,94887.41
2023-01-09T00:11:17.987Z,94892.00
2023-01-09T00:13:44.955Z,94901.63
2023-01-09T00:16:11.764Z,94895.63
2023-01-09T00:18:38.990Z,94902.66
2023-01-09T00:21:09.139Z,94902.44
2023-01-09T00:23:36.432Z,94907.66
2023-01-09T00:26:08.760Z,94903.44
2023-01-09T00:28:36.300Z,94916.88
2023-01-09T00:31:05.193Z,94909.63
2023-01-09T00:33:44.980Z,94935.13
2023-01-09T00:36:12.142Z,94931.31
2023-01-09T00:38:39.630Z,94928.53
2023-01-09T00:41:10.386Z,94926.53
2023-01-09T00:43:44.521Z,94936.53
2023-01-09T00:46:11.956Z,94926.91
2023-01-09T00:48:41.585Z,94926.53
2023-01-09T00:51:08.725Z,94928.13
2023-01-09T00:53:38.166Z,94926.09
2023-01-09T00:56:10.408Z,94920.50
2023-01-09T00:58:37.670Z,94920.31
2023-01-09T01:01:05.720Z,94932.13
2023-01-09T01:03:32.750Z,94939.38
2023-01-09T01:06:17.931Z,94934.16
2023-01-09T01:08:46.232Z,94930.50
2023-01-09T01:11:13.302Z,94916.47
2023-01-09T01:13:41.871Z,94917.69
2023-01-09T01:16:12.259Z,94915.28
2023-01-09T01:18:39.597Z,94920.88
2023-01-09T01:21:12.534Z,94917.28
2023-01-09T01:23:39.933Z,94923.47
2023-01-09T01:26:11.414Z,94910.06
2023-01-09T01:28:39.152Z,94911.66
2023-01-09T01:31:06.496Z,94912.84
2023-01-09T01:33:35.913Z,94906.81
2023-01-09T01:36:06.257Z,94894.78
2023-01-09T01:38:33.796Z,94903.59
2023-01-09T01:41:02.332Z,94898.00
2023-01-09T01:43:51.885Z,94896.38
2023-01-09T01:46:19.326Z,94898.59
2023-01-09T01:48:50.368Z,94898.59
2023-01-09T01:51:18.865Z,94898.78
2023-01-09T01:53:53.991Z,94889.97
2023-01-09T01:56:35.320Z,94876.28
2023-01-09T01:59:13.504Z,94855.44
2023-01-09T02:01:45.508Z,94863.44
2023-01-09T02:04:12.946Z,94874.75
2023-01-09T02:06:40.324Z,94896.00
2023-01-09T02:09:08.721Z,94890.88
2023-01-09T02:11:35.564Z,94900.47
2023-01-09T02:14:02.898Z,94904.06
2023-01-09T02:16:48.878Z,94900.47
2023-01-09T02:19:33.622Z,94886.41
2023-01-09T02:22:53.874Z,94883.19
2023-01-09T02:25:52.397Z,94894.81
2023-01-09T02:28:57.005Z,94886.78
2023-01-09T02:31:35.614Z,94901.25
2023-01-09T02:34:21.090Z,94905.22
2023-01-09T02:37:01.747Z,94891.19
2023-01-09T02:39:44.296Z,94890.03
2023-01-09T02:42:21.685Z,94876.38
2023-01-09T02:44:48.553Z,94884.00
2023-01-09T02:47:15.219Z,94889.59
2023-01-09T02:49:54.158Z,94891.22
2023-01-09T02:53:07.667Z,94881.59
2023-01-09T02:55:53.167Z,94888.41
2023-01-09T02:58:50.423Z,94880.59
2023-01-09T03:01:27.448Z,94879.19
2023-01-09T03:04:19.217Z,94880.81
2023-01-09T03:06:48.270Z,94878.41
2023-01-09T03:09:20.284Z,94868.38
2023-01-09T03:12:00.205Z,94876.81
2023-01-09T03:14:30.531Z,94872.81
2023-01-09T03:17:04.220Z,94880.81
2023-01-09T03:19:33.355Z,94883.22
2023-01-09T03:22:00.307Z,94879.19
2023-01-09T03:24:27.255Z,94878.44
2023-01-09T03:26:56.758Z,94883.66
2023-01-09T03:29:23.583Z,94880.81
2023-01-09T03:31:51.579Z,94879.19
2023-01-09T03:34:18.453Z,94875.59
2023-01-09T03:36:45.334Z,94876.81
2023-01-09T03:39:12.262Z,94889.25
2023-01-09T03:41:39.054Z,94886.03
2023-01-09T03:44:05.847Z,94882.84
2023-01-09T03:46:32.655Z,94882.84
2023-01-09T03:48:59.480Z,94883.25
2023-01-09T03:51:26.343Z,94886.84
2023-01-09T03:53:53.195Z,94876.84
2023-01-09T03:56:20.339Z,94882.44
2023-01-09T03:58:50.012Z,94881.25
2023-01-09T04:01:16.941Z,94881.25
2023-01-09T04:03:43.797Z,94874.03
2023-01-09T04:06:10.608Z,94876.03
2023-01-09T04:08:37.444Z,94883.25
2023-01-09T04:11:04.300Z,94884.84
2023-01-09T04:13:31.182Z,94888.88
2023-01-09T04:15:58.063Z,94886.47
2023-01-09T04:18:24.946Z,94896.69
2023-01-09T04:20:52.135Z,94887.06
2023-01-09T04:23:19.882Z,94892.88
2023-01-09T04:25:47.670Z,94905.09
2023-01-09T04:28:14.507Z,94906.69
2023-01-09T04:30:41.333Z,94908.09
2023-01-09T04:33:08.129Z,94911.31
2023-01-09T04:35:34.971Z,94915.91
2023-01-09T04:38:01.912Z,94907.69
2023-01-09T04:40:28.710Z,94915.31
2023-01-09T04:42:55.577Z,94918.53
2023-01-09T04:45:22.466Z,94924.13
2023-01-09T04:47:49.367Z,94932.94
2023-01-09T04:50:16.382Z,94941.38
2023-01-09T04:52:43.326Z,94936.56
2023-01-09T04:55:10.580Z,94949.38
2023-01-09T04:57:37.831Z,94944.97
2023-01-09T05:00:09.783Z,94957.41
2023-01-09T05:02:37.395Z,94953.59
2023-01-09T05:05:06.441Z,94962.63
2023-01-09T05:07:33.710Z,94966.03
2023-01-09T05:10:01.311Z,94965.03
2023-01-09T05:12:28.148Z,94966.25
2023-01-09T05:14:54.988Z,94974.66
2023-01-09T05:17:21.841Z,94971.25
2023-01-09T05:19:48.629Z,94977.88
2023-01-09T05:22:15.558Z,94984.88
2023-01-09T05:24:42.495Z,94983.84
2023-01-09T05:27:09.339Z,94996.28
2023-01-09T05:29:36.163Z,94994.00
2023-01-09T05:32:02.990Z,95004.56
2023-01-09T05:34:29.971Z,95004.53
2023-01-09T05:36:56.793Z,95008.50
2023-01-09T05:39:23.626Z,95017.28
2023-01-09T05:41:50.424Z,95022.59
2023-01-09T05:44:17.323Z,95025.16
2023-01-09T05:46:44.404Z,95032.69
2023-01-09T05:49:11.794Z,95025.88
2023-01-09T05:51:38.626Z,95033.00
2023-01-09T05:54:07.385Z,95037.28
2023-01-09T05:56:34.299Z,95039.78
2023-01-09T05:59:01.294Z,95042.94
2023-01-09T06:01:28.330Z,95056.41
2023-01-09T06:03:55.278Z,95044.66
2023-01-09T06:06:24.058Z,95058.00
2023-01-09T06:08:51.013Z,95069.50
2023-01-09T06:11:17.891Z,95064.84
2023-01-09T06:13:44.928Z,95064.41
2023-01-09T06:16:13.818Z,95072.91
2023-01-09T06:18:40.775Z,95075.25
2023-01-09T06:21:07.655Z,95075.16
2023-01-09T06:23:34.485Z,95069.81
2023-01-09T06:26:01.454Z,95079.59
2023-01-09T06:28:28.276Z,95088.66
2023-01-09T06:30:55.112Z,95079.16
2023-01-09T06:33:22.003Z,95096.34
2023-01-09T06:35:48.979Z,95085.97
2023-01-09T06:38:15.833Z,95109.72
2023-01-09T06:40:42.631Z,95113.03
2023-01-09T06:43:09.487Z,95115.78
2023-01-09T06:45:36.357Z,95123.50
2023-01-09T06:48:03.211Z,95137.69
2023-01-09T06:50:30.224Z,95139.66
2023-01-09T06:52:57.108Z,95130.94
2023-01-09T06:55:23.943Z,95139.75
2023-01-09T06:57:50.738Z,95130.34
2023-01-09T07:00:18.381Z,95134.84
2023-01-09T07:02:45.343Z,95152.41
2023-01-09T07:05:12.658Z,95151.56
2023-01-09T07:07:41.140Z,95167.34
2023-01-09T07:10:09.722Z,95176.59
2023-01-09T07:12:36.675Z,95175.16
2023-01-09T07:15:03.982Z,95194.38
2023-01-09T07:17:30.831Z,95205.22
2023-01-09T07:19:57.661Z,95216.88
2023-01-09T07:22:24.531Z,95225.34
2023-01-09T07:24:51.371Z,95228.22
2023-01-09T07:27:18.195Z,95222.53
2023-01-09T07:29:45.014Z,95233.78
2023-01-09T07:32:11.853Z,95229.88
2023-01-09T07:34:38.669Z,95223.16
2023-01-09T07:37:05.490Z,95232.25
2023-01-09T07:39:32.347Z,95233.34
2023-01-09T07:41:59.227Z,95237.84
2023-01-09T07:44:26.126Z,95245.66
2023-01-09T07:46:52.979Z,95253.16
2023-01-09T07:49:19.835Z,95265.63
2023-01-09T07:51:48.299Z,95272.50
2023-01-09T07:54:15.227Z,95272.88
2023-01-09T07:56:42.198Z,95278.56
2023-01-09T07:59:09.071Z,95272.91
2023-01-09T08:01:36.044Z,95280.94
2023-01-09T08:04:03.369Z,95277.66
2023-01-09T08:06:31.471Z,95280.69
2023-01-09T08:09:00.152Z,95279.69
2023-01-09T08:11:27.276Z,95270.88
2023-01-09T08:13:54.150Z,95280.66
2023-01-09T08:16:20.954Z,95269.19
2023-01-09T08:18:47.845Z,95281.66
2023-01-09T08:21:14.794Z,95278.78
2023-01-09T08:23:41.750Z,95307.50
2023-01-09T08:26:08.722Z,95302.19
2023-01-09T08:28:35.576Z,95307.28
2023-01-09T08:31:02.445Z,95306.59
2023-01-09T08:33:29.731Z,95309.34
2023-01-09T08:35:56.651Z,95313.75
2023-01-09T08:38:23.449Z,95313.28
2023-01-09T08:40:50.346Z,95310.84
2023-01-09T08:43:35.722Z,95322.03
2023-01-09T08:46:36.594Z,95321.75
2023-01-09T08:49:03.446Z,95343.78
2023-01-09T08:51:30.369Z,95347.00
2023-01-09T08:53:57.153Z,95350.41
2023-01-09T08:56:24.006Z,95339.84
2023-01-09T08:58:50.885Z,95353.19
2023-01-09T09:01:17.820Z,95358.38
2023-01-09T09:03:44.666Z,95367.81
2023-01-09T09:06:11.511Z,95362.13
2023-01-09T09:08:38.644Z,95363.56
2023-01-09T09:11:05.700Z,95354.69
2023-01-09T09:13:32.641Z,95345.22
2023-01-09T09:15:59.543Z,95356.13
2023-01-09T09:18:26.455Z,95346.66
2023-01-09T09:20:53.238Z,95355.56
2023-01-09T09:23:20.164Z,95341.28
2023-01-09T09:25:47.056Z,95339.47
2023-01-09T09:28:13.902Z,95336.00
2023-01-09T09:30:40.994Z,95352.94
2023-01-09T09:33:07.816Z,95340.38
2023-01-09T09:35:35.087Z,95340.81
2023-01-09T09:38:05.368Z,95350.94
2023-01-09T09:41:30.858Z,95344.03
2023-01-09T09:44:52.614Z,95354.75
2023-01-09T09:47:37.980Z,95354.06
2023-01-09T09:50:29.096Z,95354.06
2023-01-09T09:53:26.258Z,95368.25
2023-01-09T09:55:53.416Z,95377.69
2023-01-09T09:58:37.767Z,95387.34
2023-01-09T10:01:06.053Z,95372.84
2023-01-09T10:03:45.577Z,95371.53
2023-01-09T10:06:32.543Z,95374.03
2023-01-09T10:09:24.857Z,95371.19
2023-01-09T10:12:06.955Z,95370.53
2023-01-09T10:14:34.000Z,95375.25
2023-01-09T10:17:36.227Z,95371.31
2023-01-09T10:20:26.096Z,95365.97
2023-01-09T10:23:36.078Z,95353.63
2023-01-09T10:26:27.960Z,95364.97
2023-01-09T10:29:09.581Z,95361.41
2023-01-09T10:31:47.378Z,95371.41
2023-01-09T10:34:34.518Z,95358.91
2023-01-09T10:37:13.351Z,95368.41
2023-01-09T10:39:54.195Z,95364.75
2023-01-09T10:42:45.015Z,95355.78
2023-01-09T10:45:30.372Z,95351.88
2023-01-09T10:48:14.905Z,95344.34
2023-01-09T10:50:45.998Z,95352.44
2023-01-09T10:53:35.827Z,95349.94
2023-01-09T10:56:27.988Z,95354.22
2023-01-09T10:58:56.539Z,95356.13
2023-01-09T11:01:32.818Z,95361.00
2023-01-09T11:04:01.738Z,95364.84
2023-01-09T11:06:58.777Z,95373.75
2023-01-09T11:09:25.668Z,95361.03
2023-01-09T11:11:52.873Z,95369.97
2023-01-09T11:14:30.978Z,95360.44
2023-01-09T11:17:03.915Z,95352.81
2023-01-09T11:19:33.470Z,95350.78
2023-01-09T11:22:17.559Z,95355.59
2023-01-09T11:24:44.842Z,95336.75
2023-01-09T11:27:23.301Z,95349.34
2023-01-09T11:30:29.117Z,95347.19
2023-01-09T11:32:58.273Z,95343.94
2023-01-09T11:35:34.188Z,95343.53
2023-01-09T11:38:17.110Z,95345.53
2023-01-09T11:40:51.781Z,95347.84
2023-01-09T11:43:30.631Z,95355.50
2023-01-09T11:46:01.936Z,95354.88
2023-01-09T11:48:43.455Z,95357.28
2023-01-09T11:51:24.206Z,95357.59
2023-01-09T11:54:27.784Z,95362.78
2023-01-09T11:56:55.987Z,95349.00
2023-01-09T11:59:29.038Z,95353.31
2023-01-09T12:02:34.913Z,95356.91
2023-01-09T12:05:44.718Z,95355.47
2023-01-09T12:08:30.155Z,95359.63
2023-01-09T12:11:14.952Z,95369.56
2023-01-09T12:14:16.127Z,95359.41
2023-01-09T12:17:04.393Z,95354.53
2023-01-09T12:20:17.729Z,95352.66
2023-01-09T12:22:54.034Z,95352.75
2023-01-09T12:25:53.557Z,95365.50
2023-01-09T12:28:48.095Z,95360.59
2023-01-09T12:31:36.696Z,95365.59
2023-01-09T12:34:25.309Z,95368.56
2023-01-09T12:37:17.985Z,95369.75
2023-01-09T12:40:24.022Z,95363.56
2023-01-09T12:43:29.486Z,95374.13
2023-01-09T12:46:20.016Z,95378.72
2023-01-09T12:49:26.723Z,95371.03
2023-01-09T12:52:23.349Z,95370.13
2023-01-09T12:55:21.035Z,95366.59
2023-01-09T12:57:56.149Z,95373.47
2023-01-09T13:00:30.406Z,95362.47
2023-01-09T13:03:29.080Z,95359.06
2023-01-09T13:05:57.572Z,95361.69
2023-01-09T13:08:40.917Z,95367.53
2023-01-09T13:11:28.987Z,95362.25
2023-01-09T13:13:59.983Z,95369.75
2023-01-09T13:16:41.547Z,95367.34
2023-01-09T13:19:39.465Z,95364.63
2023-01-09T13:22:07.695Z,95355.78
2023-01-09T13:24:39.276Z,95352.13
2023-01-09T13:27:13.404Z,95357.25
2023-01-09T13:29:50.600Z,95344.63
2023-01-09T13:32:57.253Z,95352.66
2023-01-09T13:35:24.216Z,95351.19
2023-01-09T13:37:52.903Z,95348.81
2023-01-09T13:40:19.649Z,95350.22
2023-01-09T13:43:03.575Z,95344.63
2023-01-09T13:45:37.074Z,95349.63
2023-01-09T13:48:11.025Z,95344.19
2023-01-09T13:50:43.306Z,95335.84
2023-01-09T13:53:19.342Z,95348.00
2023-01-09T13:55:58.899Z,95345.72
2023-01-09T13:58:33.779Z,95323.84
2023-01-09T14:01:05.492Z,95344.84
2023-01-09T14:03:36.455Z,95340.66
2023-01-09T14:06:11.986Z,95342.69
2023-01-09T14:08:41.872Z,95343.38
2023-01-09T14:11:10.215Z,95343.09
2023-01-09T14:13:44.563Z,95348.44
2023-01-09T14:16:20.703Z,95356.34
2023-01-09T14:18:59.321Z,95347.00
2023-01-09T14:21:26.191Z,95349.34
2023-01-09T14:24:06.754Z,95356.78
2023-01-09T14:26:45.041Z,95350.91
2023-01-09T14:29:35.774Z,95362.66
2023-01-09T14:32:21.464Z,95355.34
2023-01-09T14:34:54.768Z,95360.22
2023-01-09T14:37:21.758Z,95360.88
2023-01-09T14:39:50.563Z,95361.63
2023-01-09T14:42:24.851Z,95370.50
2023-01-09T14:45:06.315Z,95369.25
2023-01-09T14:47:48.655Z,95370.59
2023-01-09T14:50:47.775Z,95377.44
2023-01-09T14:53:21.117Z,95383.19
2023-01-09T14:56:01.728Z,95384.81
2023-01-09T14:58:36.378Z,95391.75
2023-01-09T15:01:23.706Z,95391.69
2023-01-09T15:04:06.850Z,95402.19
2023-01-09T15:06:37.899Z,95386.31
2023-01-09T15:09:07.829Z,95390.53
2023-01-09T15:11:39.176Z,95399.00
2023-01-09T15:14:07.258Z,95380.72
2023-01-09T15:16:34.416Z,95397.03
2023-01-09T15:19:07.838Z,95393.66
2023-01-09T15:21:34.637Z,95388.22
2023-01-09T15:24:34.250Z,95387.22
2023-01-09T15:27:15.796Z,95381.78
2023-01-09T15:29:42.625Z,95383.22
2023-01-09T15:32:29.903Z,95394.78
2023-01-09T15:34:57.927Z,95392.56
2023-01-09T15:37:38.716Z,95410.84
2023-01-09T15:40:21.714Z,95410.06
2023-01-09T15:42:57.343Z,95408.47
2023-01-09T15:45:38.433Z,95417.31
2023-01-09T15:48:34.794Z,95421.34
2023-01-09T15:51:18.902Z,95412.47
2023-01-09T15:53:53.703Z,95408.47
2023-01-09T15:56:30.455Z,95415.69
2023-01-09T15:58:59.254Z,95410.88
2023-01-09T16:01:40.215Z,95418.53
2023-01-09T16:04:16.544Z,95425.38
2023-01-09T16:06:49.410Z,95425.78
2023-01-09T16:09:30.547Z,95430.81
2023-01-09T16:12:01.054Z,95440.66
2023-01-09T16:14:39.580Z,95436.22
2023-01-09T16:17:13.880Z,95435.00
2023-01-09T16:19:50.253Z,95436.41
2023-01-09T16:22:33.218Z,95441.03
2023-01-09T16:25:28.347Z,95433.81
2023-01-09T16:28:23.010Z,95440.44
2023-01-09T16:31:01.917Z,95448.28
2023-01-09T16:33:31.132Z,95459.94
2023-01-09T16:35:59.027Z,95456.31
2023-01-09T16:38:26.644Z,95453.50
2023-01-09T16:41:27.140Z,95460.91
2023-01-09T16:43:53.987Z,95459.94
2023-01-09T16:46:21.694Z,95474.81
2023-01-09T16:48:48.948Z,95465.59
2023-01-09T16:51:22.691Z,95466.78
2023-01-09T16:53:50.148Z,95470.19
2023-01-09T16:56:24.810Z,95479.59
2023-01-09T16:58:54.552Z,95476.81
2023-01-09T17:01:22.958Z,95478.41
2023-01-09T17:03:50.364Z,95483.25
2023-01-09T17:06:29.196Z,95489.28
2023-01-09T17:08:56.381Z,95487.31
2023-01-09T17:11:32.093Z,95495.28
2023-01-09T17:14:03.753Z,95505.97
2023-01-09T17:16:30.830Z,95510.84
2023-01-09T17:18:57.719Z,95502.47
2023-01-09T17:21:28.975Z,95510.81
2023-01-09T17:24:14.828Z,95512.63
2023-01-09T17:27:04.239Z,95527.09
2023-01-09T17:29:31.387Z,95521.41
2023-01-09T17:31:58.588Z,95528.53
2023-01-09T17:34:25.474Z,95530.72
2023-01-09T17:36:55.458Z,95541.78
2023-01-09T17:39:23.583Z,95535.94
2023-01-09T17:41:50.487Z,95540.75
2023-01-09T17:44:17.345Z,95549.19
2023-01-09T17:46:45.021Z,95556.38
2023-01-09T17:49:20.253Z,95556.03
2023-01-09T17:51:47.469Z,95570.69
2023-01-09T17:54:14.637Z,95574.44
2023-01-09T17:56:47.438Z,95586.91
2023-01-09T17:59:15.777Z,95587.13
2023-01-09T18:01:44.093Z,95583.56
2023-01-09T18:04:11.261Z,95586.88
2023-01-09T18:06:38.051Z,95585.88
2023-01-09T18:09:05.968Z,95589.09
2023-01-09T18:11:33.086Z,95596.59
2023-01-09T18:13:59.943Z,95600.66
2023-01-09T18:16:28.666Z,95590.03
2023-01-09T18:18:58.355Z,95616.69
2023-01-09T18:21:27.063Z,95613.69
2023-01-09T18:23:54.537Z,95618.66
2023-01-09T18:26:22.187Z,95604.00
2023-01-09T18:28:52.703Z,95611.78
2023-01-09T18:31:23.444Z,95616.63
2023-01-09T18:33:56.545Z,95626.53
2023-01-09T18:36:29.652Z,95634.22
2023-01-09T18:38:59.737Z,95637.91
2023-01-09T18:41:27.647Z,95635.75
2023-01-09T18:43:57.777Z,95634.59
2023-01-09T18:46:26.166Z,95638.63
2023-01-09T18:49:00.846Z,95642.97
2023-01-09T18:51:29.657Z,95648.28
2023-01-09T18:53:56.910Z,95646.34
2023-01-09T18:56:24.889Z,95649.41
2023-01-09T18:58:58.746Z,95643.66
2023-01-09T19:01:30.183Z,95651.94
2023-01-09T19:03:59.456Z,95651.94
2023-01-09T19:06:28.927Z,95660.94
2023-01-09T19:08:58.244Z,95663.19
2023-01-09T19:11:25.371Z,95664.63
2023-01-09T19:13:52.260Z,95655.38
2023-01-09T19:16:19.489Z,95662.22
2023-01-09T19:18:46.777Z,95666.59
2023-01-09T19:21:19.101Z,95675.28
2023-01-09T19:23:48.049Z,95690.38
2023-01-09T19:26:23.828Z,95688.63
2023-01-09T19:28:55.056Z,95687.53
2023-01-09T19:31:24.522Z,95687.25
2023-01-09T19:33:53.927Z,95698.09
2023-01-09T19:36:22.207Z,95696.47
2023-01-09T19:38:49.219Z,95700.47
2023-01-09T19:41:19.482Z,95696.13
2023-01-09T19:43:47.693Z,95708.13
2023-01-09T19:46:22.010Z,95703.78
2023-01-09T19:48:50.196Z,95708.19
2023-01-09T19:51:19.781Z,95715.25
2023-01-09T19:53:58.207Z,95723.91
2023-01-09T19:56:31.318Z,95731.38
2023-01-09T19:59:02.181Z,95737.25
2023-01-09T20:01:38.734Z,95738.44
2023-01-09T20:04:13.387Z,95724.00
2023-01-09T20:06:47.170Z,95734.63
2023-01-09T20:09:17.696Z,95735.69
2023-01-09T20:11:44.945Z,95746.88
2023-01-09T20:14:16.307Z,95743.19
2023-01-09T20:16:43.779Z,95739.72
2023-01-09T20:19:13.011Z,95749.03
2023-01-09T20:21:40.096Z,95758.75
2023-01-09T20:24:08.486Z,95763.88
2023-01-09T20:26:37.669Z,95759.16
2023-01-09T20:29:04.739Z,95760.78
2023-01-09T20:31:32.958Z,95765.13
2023-01-09T20:34:00.184Z,95771.22
2023-01-09T20:36:30.039Z,95772.69
2023-01-09T20:38:59.951Z,95774.31
2023-01-09T20:41:29.382Z,95765.63
2023-01-09T20:43:59.625Z,95778.72
2023-01-09T20:46:30.560Z,95786.75
2023-01-09T20:49:06.455Z,95783.09
2023-01-09T20:51:41.840Z,95781.03
2023-01-09T20:54:09.096Z,95789.53
2023-01-09T20:56:39.115Z,95790.53
2023-01-09T20:59:14.476Z,95792.69
2023-01-09T21:01:41.515Z,95809.06
2023-01-09T21:04:08.946Z,95812.09
2023-01-09T21:06:36.241Z,95817.50
2023-01-09T21:09:05.242Z,95810.22
2023-01-09T21:11:32.757Z,95820.66
2023-01-09T21:13:59.990Z,95815.13
2023-01-09T21:16:27.141Z,95813.88
2023-01-09T21:18:55.027Z,95825.50
2023-01-09T21:21:27.243Z,95826.94
2023-01-09T21:23:58.044Z,95827.13
2023-01-09T21:26:28.900Z,95813.63
2023-01-09T21:29:00.415Z,95818.13
2023-01-09T21:31:34.456Z,95828.09
2023-01-09T21:34:07.585Z,95821.44
2023-01-09T21:36:35.879Z,95826.66
2023-01-09T21:39:07.649Z,95826.66
2023-01-09T21:41:53.983Z,95836.53
2023-01-09T21:44:39.372Z,95835.97
2023-01-09T21:47:06.244Z,95849.06
2023-01-09T21:49:35.112Z,95854.00
2023-01-09T21:52:05.797Z,95866.22
2023-01-09T21:54:33.417Z,95863.97
2023-01-09T21:57:01.097Z,95867.78
2023-01-09T21:59:29.143Z,95871.38
2023-01-09T22:01:56.126Z,95876.50
2023-01-09T22:04:27.982Z,95875.16
2023-01-09T22:06:55.948Z,95872.19
2023-01-09T22:09:23.150Z,95872.72
2023-01-09T22:11:49.963Z,95877.47
2023-01-09T22:14:18.907Z,95879.47
2023-01-09T22:16:46.422Z,95891.47
2023-01-09T22:19:14.791Z,95888.38
2023-01-09T22:21:41.671Z,95890.31
2023-01-09T22:24:11.766Z,95894.41
2023-01-09T22:26:38.615Z,95897.28
2023-01-09T22:29:05.414Z,95905.53
2023-01-09T22:31:34.983Z,95904.03
2023-01-09T22:34:02.576Z,95898.59
2023-01-09T22:36:31.012Z,95911.19
2023-01-09T22:39:00.305Z,95915.16
2023-01-09T22:41:29.600Z,95909.63
2023-01-09T22:43:56.518Z,95912.25
2023-01-09T22:46:23.658Z,95916.06
2023-01-09T22:48:50.554Z,95916.06
2023-01-09T22:51:20.890Z,95920.69
2023-01-09T22:53:48.156Z,95922.16
2023-01-09T22:56:20.924Z,95923.44
2023-01-09T22:58:53.501Z,95923.59
2023-01-09T23:01:21.672Z,95921.44
2023-01-09T23:03:48.983Z,95930.19
2023-01-09T23:06:21.846Z,95917.03
2023-01-09T23:08:51.080Z,95926.22
2023-01-09T23:11:47.490Z,95928.66
2023-01-09T23:14:14.461Z,95932.78
2023-01-09T23:16:41.794Z,95923.44
2023-01-09T23:19:09.823Z,95931.72
2023-01-09T23:21:37.231Z,95943.41
2023-01-09T23:24:06.790Z,95949.75
2023-01-09T23:26:34.741Z,95956.56
2023-01-09T23:29:02.009Z,95957.72
2023-01-09T23:31:28.857Z,95958.00
2023-01-09T23:33:55.722Z,95970.88
2023-01-09T23:36:22.554Z,95970.50
2023-01-09T23:38:49.982Z,95959.38
2023-01-09T23:41:16.817Z,95975.63
2023-01-09T23:43:44.430Z,95977.22
2023-01-09T23:46:14.361Z,95986.97
2023-01-09T23:48:41.365Z,95984.81
2023-01-09T23:51:08.263Z,95980.31
2023-01-09T23:53:35.112Z,95989.47
2023-01-09T23:56:02.969Z,95995.19
2023-01-09T23:58:29.844Z,95998.66
